Time;durP1;ratioP1;P1;durP2;ratioP2;P2;SDS_P1;SDS_P2;PMS_P1;PMS_P2;Temp;Humidity;BMP_temperature;BMP_pressure;BME280_temperature;BME280_humidity;BME280_pressure;Samples;Min_cycle;Max_cycle;Signal;HPM_P1;HPM_P2
2022/10/30 00:00:49;;;;;;;74.00;40.65;;;10.10;99.90;;;;;;5093131;28;20393;-74
2022/10/30 00:03:15;;;;;;;74.78;40.40;;;10.10;99.90;;;;;;5093248;28;20058;-74
2022/10/30 00:05:42;;;;;;;76.13;40.85;;;10.00;99.90;;;;;;5091795;28;20108;-74
2022/10/30 00:08:12;;;;;;;77.78;39.83;;;9.90;99.90;;;;;;5093085;28;20377;-74
2022/10/30 00:10:39;;;;;;;71.47;38.15;;;9.90;99.90;;;;;;5093148;28;20028;-73
2022/10/30 00:13:05;;;;;;;82.05;43.55;;;9.90;99.90;;;;;;5091815;28;20024;-74
2022/10/30 00:15:31;;;;;;;72.63;40.28;;;9.90;99.90;;;;;;5092028;28;20035;-74
2022/10/30 00:17:56;;;;;;;73.65;40.80;;;9.80;99.90;;;;;;5091613;28;20020;-74
2022/10/30 00:20:22;;;;;;;59.58;33.90;;;9.80;99.90;;;;;;5091701;28;20030;-73
2022/10/30 00:22:48;;;;;;;59.35;33.92;;;9.70;99.90;;;;;;5091610;28;20020;-73
2022/10/30 00:25:13;;;;;;;53.53;30.50;;;9.70;99.90;;;;;;5092860;28;20063;-74
2022/10/30 00:27:39;;;;;;;49.50;28.80;;;9.70;99.90;;;;;;5092974;28;20020;-73
2022/10/30 00:30:05;;;;;;;42.80;26.27;;;9.60;99.90;;;;;;5092990;28;20028;-74
2022/10/30 00:32:30;;;;;;;34.75;23.52;;;9.50;99.90;;;;;;5100291;28;20040;-74
2022/10/30 00:34:56;;;;;;;34.95;22.33;;;9.50;99.90;;;;;;5093399;28;20020;-74
2022/10/30 00:37:22;;;;;;;36.65;23.20;;;9.50;99.90;;;;;;5096745;28;20059;-74
2022/10/30 00:39:47;;;;;;;44.13;26.33;;;9.50;99.90;;;;;;5096809;28;20056;-74
2022/10/30 00:42:14;;;;;;;50.88;29.58;;;9.50;99.90;;;;;;5096659;28;20389;-73
2022/10/30 00:44:43;;;;;;;53.90;29.77;;;9.50;99.90;;;;;;5096455;28;20547;-73
2022/10/30 00:47:17;;;;;;;59.05;33.83;;;9.40;99.90;;;;;;5106235;28;20123;-73
2022/10/30 00:49:51;;;;;;;76.22;42.65;;;9.40;99.90;;;;;;5115693;28;20415;-74
2022/10/30 00:52:19;;;;;;;60.50;33.78;;;9.40;99.90;;;;;;5116916;28;20034;-74
2022/10/30 00:54:45;;;;;;;62.53;33.47;;;9.40;99.90;;;;;;5115565;28;20533;-73
2022/10/30 00:57:11;;;;;;;59.47;31.27;;;9.40;99.90;;;;;;5113129;28;20024;-75
2022/10/30 00:59:37;;;;;;;58.20;31.45;;;9.40;99.90;;;;;;5094392;28;20020;-74
2022/10/30 01:02:04;;;;;;;65.55;31.80;;;9.40;99.90;;;;;;5093551;28;20073;-74
2022/10/30 01:04:32;;;;;;;55.92;30.50;;;9.40;99.90;;;;;;5094410;28;20016;-74
2022/10/30 01:07:04;;;;;;;59.58;32.97;;;9.40;99.90;;;;;;5093362;28;20065;-73
2022/10/30 01:09:30;;;;;;;51.53;29.92;;;9.30;99.90;;;;;;5096226;28;20020;-74
2022/10/30 01:11:57;;;;;;;46.60;28.15;;;9.20;99.90;;;;;;5096088;28;20434;-74
2022/10/30 01:14:23;;;;;;;45.75;27.15;;;9.20;99.90;;;;;;5094538;28;20035;-73
2022/10/30 01:17:26;;;;;;;43.80;26.50;;;9.20;99.90;;;;;;5095917;28;20034;-74
2022/10/30 01:20:04;;;;;;;41.83;24.45;;;9.10;99.90;;;;;;5095985;28;20126;-74
2022/10/30 01:22:44;;;;;;;50.10;25.40;;;9.10;99.90;;;;;;5094598;28;20024;-74
2022/10/30 01:25:19;;;;;;;49.72;28.77;;;9.10;99.90;;;;;;5095820;28;20478;-74
2022/10/30 01:28:33;;;;;;;53.13;30.95;;;9.10;99.90;;;;;;5095778;28;20020;-74
2022/10/30 01:31:38;;;;;;;53.33;30.00;;;9.10;99.90;;;;;;5013539;28;20049;-73
2022/10/30 01:34:42;;;;;;;53.28;28.13;;;9.10;99.90;;;;;;5013692;28;20030;-73
2022/10/30 01:37:23;;;;;;;46.47;27.63;;;9.10;99.90;;;;;;5075116;28;20504;-73
2022/10/30 01:39:49;;;;;;;49.55;26.60;;;9.10;99.90;;;;;;5075395;28;20529;-74
2022/10/30 01:42:49;;;;;;;45.53;24.90;;;9.10;99.90;;;;;;5075266;28;20024;-74
2022/10/30 01:45:37;;;;;;;41.03;23.50;;;9.00;99.90;;;;;;5075182;28;20029;-73
2022/10/30 01:48:16;;;;;;;42.60;23.52;;;9.00;99.90;;;;;;5063995;28;20068;-74
2022/10/30 01:50:56;;;;;;;44.38;25.83;;;9.00;99.90;;;;;;5090735;28;20493;-74
2022/10/30 01:53:35;;;;;;;45.00;25.73;;;9.00;99.90;;;;;;5075084;28;20094;-73
2022/10/30 01:56:20;;;;;;;50.53;26.60;;;9.00;99.90;;;;;;5094194;28;20068;-73
2022/10/30 01:58:45;;;;;;;55.20;27.45;;;9.00;99.90;;;;;;5096990;28;20371;-74
2022/10/30 02:01:12;;;;;;;55.30;28.27;;;9.00;99.90;;;;;;5092950;28;20046;-73
2022/10/30 02:03:38;;;;;;;68.38;30.77;;;9.00;99.90;;;;;;5093882;28;20032;-74
2022/10/30 02:06:04;;;;;;;58.75;28.00;;;9.00;99.90;;;;;;5094240;28;20036;-73
2022/10/30 02:08:30;;;;;;;71.00;29.27;;;8.90;99.90;;;;;;5095057;28;20474;-74
2022/10/30 02:10:56;;;;;;;54.38;24.90;;;8.90;99.90;;;;;;5093601;28;20035;-73
2022/10/30 02:13:22;;;;;;;58.70;28.58;;;8.90;99.90;;;;;;5094847;28;20019;-73
2022/10/30 02:15:48;;;;;;;67.97;26.42;;;8.90;99.90;;;;;;5094618;28;20028;-73
2022/10/30 02:18:14;;;;;;;60.70;27.85;;;8.90;99.90;;;;;;5094708;28;20100;-74
2022/10/30 02:20:40;;;;;;;106.03;29.60;;;8.90;99.90;;;;;;5094783;28;20047;-73
2022/10/30 02:23:07;;;;;;;67.90;26.60;;;8.80;99.90;;;;;;5094696;28;20466;-73
2022/10/30 02:25:33;;;;;;;82.38;30.48;;;8.80;99.90;;;;;;5093371;28;20439;-74
2022/10/30 02:27:58;;;;;;;74.32;31.00;;;8.90;99.90;;;;;;5094615;28;20094;-73
2022/10/30 02:30:24;;;;;;;66.65;28.80;;;8.90;99.90;;;;;;5094509;28;21689;-74
2022/10/30 02:32:50;;;;;;;80.63;33.05;;;8.90;99.90;;;;;;5093224;28;20020;-73
2022/10/30 02:35:16;;;;;;;79.95;32.90;;;9.00;99.90;;;;;;5094360;28;20052;-73
2022/10/30 02:37:41;;;;;;;98.75;37.92;;;9.00;99.90;;;;;;5093198;28;20610;-74
2022/10/30 02:40:08;;;;;;;81.82;36.45;;;9.10;99.90;;;;;;5094213;28;20048;-74
2022/10/30 02:42:34;;;;;;;90.10;40.17;;;9.10;99.90;;;;;;5094436;28;20024;-74
2022/10/30 02:44:59;;;;;;;92.18;38.40;;;9.10;99.90;;;;;;5105048;28;20032;-73
2022/10/30 02:47:27;;;;;;;88.60;38.17;;;9.20;99.90;;;;;;5114690;28;20096;-74
2022/10/30 02:49:53;;;;;;;92.53;41.40;;;9.20;99.90;;;;;;5113264;28;20447;-74
2022/10/30 02:52:18;;;;;;;98.00;40.58;;;9.20;99.90;;;;;;5114671;28;20023;-74
2022/10/30 02:54:44;;;;;;;99.53;40.50;;;9.30;99.90;;;;;;5114555;28;20062;-74
2022/10/30 02:57:09;;;;;;;100.68;37.25;;;9.30;99.90;;;;;;5110533;28;20027;-74
2022/10/30 02:59:35;;;;;;;106.75;39.97;;;9.40;99.90;;;;;;5091836;28;20023;-73
2022/10/30 03:02:01;;;;;;;95.45;39.63;;;9.40;99.90;;;;;;5094092;28;20035;-74
2022/10/30 03:04:26;;;;;;;113.80;41.38;;;9.40;99.90;;;;;;5093886;28;20035;-73
2022/10/30 03:06:52;;;;;;;110.68;40.40;;;9.40;99.90;;;;;;5093959;28;20043;-73
2022/10/30 03:09:17;;;;;;;93.60;36.63;;;9.50;99.90;;;;;;5093749;28;20020;-74
2022/10/30 03:11:43;;;;;;;113.43;40.13;;;9.50;99.90;;;;;;5094018;28;20389;-73
2022/10/30 03:14:09;;;;;;;103.07;39.03;;;9.50;99.90;;;;;;5093829;28;20042;-74
2022/10/30 03:16:35;;;;;;;120.13;38.35;;;9.50;99.90;;;;;;5092463;28;20469;-74
2022/10/30 03:19:02;;;;;;;115.18;39.55;;;9.50;99.90;;;;;;5093635;28;20020;-73
2022/10/30 03:21:28;;;;;;;112.05;39.03;;;9.50;99.90;;;;;;5092470;28;20047;-73
2022/10/30 03:23:54;;;;;;;125.18;41.40;;;9.50;99.90;;;;;;5093716;28;20051;-73
2022/10/30 03:26:20;;;;;;;121.28;40.88;;;9.40;99.90;;;;;;5092323;28;20447;-74
2022/10/30 03:28:46;;;;;;;115.05;39.97;;;9.50;99.90;;;;;;5093585;28;20046;-73
2022/10/30 03:31:15;;;;;;;101.95;37.75;;;9.40;99.90;;;;;;5103232;28;20472;-73
2022/10/30 03:33:41;;;;;;;109.78;38.95;;;9.50;99.90;;;;;;5099175;28;20032;-74
2022/10/30 03:36:12;;;;;;;146.88;43.92;;;9.50;99.90;;;;;;5093429;28;20067;-74
2022/10/30 03:38:38;;;;;;;120.18;40.30;;;9.50;99.90;;;;;;5092275;28;20470;-74
2022/10/30 03:41:05;;;;;;;121.00;42.67;;;9.50;99.90;;;;;;5092122;28;20092;-73
2022/10/30 03:43:30;;;;;;;110.82;38.88;;;9.50;99.90;;;;;;5093407;28;20076;-74
2022/10/30 03:45:56;;;;;;;128.10;41.88;;;9.50;99.90;;;;;;5093222;28;20389;-73
2022/10/30 03:48:24;;;;;;;120.20;41.40;;;9.50;99.90;;;;;;5093419;28;20365;-74
2022/10/30 03:50:54;;;;;;;208.35;49.35;;;9.50;99.90;;;;;;5093342;28;20035;-74
2022/10/30 03:53:21;;;;;;;219.20;47.70;;;9.50;99.90;;;;;;5098280;28;20022;-74
2022/10/30 03:55:47;;;;;;;241.75;41.85;;;9.50;99.90;;;;;;5129414;28;20414;-74
2022/10/30 03:58:13;;;;;;;247.50;43.08;;;9.50;99.90;;;;;;5100422;28;20028;-74
2022/10/30 04:00:38;;;;;;;442.98;63.03;;;9.40;99.90;;;;;;5091975;28;20024;-74
2022/10/30 04:03:08;;;;;;;264.55;49.42;;;9.40;99.90;;;;;;5093248;28;20027;-73
2022/10/30 04:05:34;;;;;;;401.65;60.53;;;9.40;99.90;;;;;;5091776;28;20120;-74
2022/10/30 04:08:03;;;;;;;149.52;37.78;;;9.40;99.90;;;;;;5093131;28;20030;-74
2022/10/30 04:10:28;;;;;;;191.45;38.83;;;9.30;99.90;;;;;;5094528;28;20035;-74
2022/10/30 04:13:06;;;;;;;226.20;39.72;;;9.30;99.90;;;;;;5097365;28;20024;-74
2022/10/30 04:15:32;;;;;;;189.20;36.95;;;9.30;99.90;;;;;;5097083;28;20043;-74
2022/10/30 04:17:58;;;;;;;458.83;65.40;;;9.30;99.90;;;;;;5097160;28;20052;-74
2022/10/30 04:20:25;;;;;;;200.65;34.22;;;9.30;99.90;;;;;;5095837;28;20472;-74
2022/10/30 04:23:02;;;;;;;81.75;26.33;;;9.20;99.90;;;;;;5097054;28;20081;-74
2022/10/30 04:25:28;;;;;;;170.57;30.73;;;9.20;99.90;;;;;;5096898;28;20044;-74
2022/10/30 04:27:53;;;;;;;157.90;32.75;;;9.20;99.90;;;;;;5095699;28;20103;-74
2022/10/30 04:30:20;;;;;;;110.78;31.60;;;9.20;99.90;;;;;;5099347;28;20039;-73
2022/10/30 04:32:51;;;;;;;375.58;51.25;;;9.20;99.90;;;;;;5117269;28;20031;-74
2022/10/30 04:35:18;;;;;;;229.70;38.28;;;9.20;99.90;;;;;;5117012;28;20028;-74
2022/10/30 04:37:52;;;;;;;314.27;48.38;;;9.10;99.90;;;;;;5117158;28;20019;-73
2022/10/30 04:40:18;;;;;;;253.57;37.92;;;9.10;99.90;;;;;;5132726;27;20046;-74
2022/10/30 04:42:46;;;;;;;246.35;40.22;;;9.10;99.90;;;;;;5116895;28;20107;-73
2022/10/30 04:45:11;;;;;;;236.82;41.65;;;9.10;99.90;;;;;;5116843;28;20469;-74
2022/10/30 04:47:37;;;;;;;264.63;38.95;;;9.00;99.90;;;;;;5117067;28;20024;-73
2022/10/30 04:50:03;;;;;;;116.28;28.13;;;9.00;99.90;;;;;;5116480;28;20032;-73
2022/10/30 04:52:29;;;;;;;155.43;31.25;;;9.10;99.90;;;;;;5116839;28;20020;-74
2022/10/30 04:54:54;;;;;;;383.02;55.25;;;9.10;99.90;;;;;;5116901;28;20024;-73
2022/10/30 04:57:20;;;;;;;243.73;40.65;;;9.10;99.90;;;;;;5110394;28;20047;-73
2022/10/30 04:59:45;;;;;;;235.48;39.08;;;9.00;99.90;;;;;;5094511;28;20385;-73
2022/10/30 05:02:11;;;;;;;273.52;39.90;;;9.00;99.90;;;;;;5094326;28;20047;-74
2022/10/30 05:04:36;;;;;;;190.65;35.78;;;9.00;99.90;;;;;;5094037;28;20064;-74
2022/10/30 05:07:02;;;;;;;280.05;40.33;;;9.00;99.90;;;;;;5095920;28;20042;-73
2022/10/30 05:09:28;;;;;;;218.63;34.28;;;9.00;99.90;;;;;;5097158;28;20024;-74
2022/10/30 05:11:54;;;;;;;200.95;36.20;;;9.00;99.90;;;;;;5116411;28;20103;-74
2022/10/30 05:14:19;;;;;;;314.58;48.17;;;9.00;99.90;;;;;;5116394;28;20117;-74
2022/10/30 05:16:45;;;;;;;260.20;42.15;;;9.00;99.90;;;;;;5116367;28;20020;-73
2022/10/30 05:19:11;;;;;;;217.00;34.13;;;9.00;99.90;;;;;;5116259;28;20030;-74
2022/10/30 05:21:36;;;;;;;114.45;28.02;;;9.00;99.90;;;;;;5113887;28;20366;-74
2022/10/30 05:24:02;;;;;;;180.88;33.95;;;8.90;99.90;;;;;;5132101;27;20027;-74
2022/10/30 05:26:28;;;;;;;278.08;41.90;;;8.90;99.90;;;;;;5131889;27;20058;-74
2022/10/30 05:28:53;;;;;;;254.13;40.97;;;9.00;99.90;;;;;;5114845;28;20080;-73
2022/10/30 05:31:19;;;;;;;292.83;46.60;;;8.90;99.90;;;;;;5104561;28;20028;-74
2022/10/30 05:33:44;;;;;;;212.55;34.25;;;8.90;99.90;;;;;;5095697;28;20032;-73
2022/10/30 05:36:10;;;;;;;239.93;39.65;;;8.90;99.90;;;;;;5095654;28;20040;-73
2022/10/30 05:38:35;;;;;;;300.80;50.10;;;9.00;99.90;;;;;;5094361;28;20051;-74
2022/10/30 05:41:01;;;;;;;231.07;42.08;;;8.90;99.90;;;;;;5094190;28;20047;-73
2022/10/30 05:43:26;;;;;;;236.90;44.15;;;8.90;99.90;;;;;;5095659;28;20028;-73
2022/10/30 05:45:52;;;;;;;230.10;36.78;;;8.90;99.90;;;;;;5094060;28;20039;-74
2022/10/30 05:48:18;;;;;;;211.75;37.40;;;8.90;99.90;;;;;;5095362;28;20102;-73
2022/10/30 05:50:43;;;;;;;187.13;39.88;;;8.90;99.90;;;;;;5094060;28;20046;-73
2022/10/30 05:53:09;;;;;;;258.83;45.60;;;9.00;99.90;;;;;;5093978;28;20020;-74
2022/10/30 05:55:35;;;;;;;200.82;37.33;;;9.00;99.90;;;;;;5095351;28;20533;-74
2022/10/30 05:58:05;;;;;;;304.95;47.28;;;9.00;99.90;;;;;;5094928;28;20099;-73
2022/10/30 06:00:33;;;;;;;292.70;53.92;;;9.00;99.90;;;;;;5110903;28;20020;-74
2022/10/30 06:03:03;;;;;;;331.02;53.50;;;9.00;99.90;;;;;;5093662;28;20016;-74
2022/10/30 06:05:31;;;;;;;168.65;41.80;;;9.10;99.90;;;;;;5093741;28;20225;-73
2022/10/30 06:07:56;;;;;;;339.35;54.03;;;9.10;99.90;;;;;;5094816;28;20021;-74
2022/10/30 06:10:23;;;;;;;424.27;62.28;;;9.10;99.90;;;;;;5094951;28;20393;-73
2022/10/30 06:12:53;;;;;;;285.70;50.10;;;9.10;99.90;;;;;;5094958;28;20326;-74
2022/10/30 06:15:18;;;;;;;271.85;47.72;;;9.10;99.90;;;;;;5094929;28;20028;-74
2022/10/30 06:17:44;;;;;;;268.80;46.13;;;9.20;99.90;;;;;;5093537;28;20028;-74
2022/10/30 06:20:10;;;;;;;149.18;35.38;;;9.10;99.90;;;;;;5094852;28;20089;-73
2022/10/30 06:22:35;;;;;;;163.18;40.72;;;9.20;99.90;;;;;;5094592;28;20136;-73
2022/10/30 06:25:01;;;;;;;288.77;45.97;;;9.20;99.90;;;;;;5094742;28;20028;-73
2022/10/30 06:27:26;;;;;;;307.55;50.15;;;9.30;99.90;;;;;;5094361;28;20385;-74
2022/10/30 06:29:53;;;;;;;221.27;41.70;;;9.30;99.90;;;;;;5093417;28;20055;-74
2022/10/30 06:32:19;;;;;;;431.60;65.10;;;9.20;99.90;;;;;;5114670;28;20110;-74
2022/10/30 06:34:45;;;;;;;269.73;48.38;;;9.30;99.90;;;;;;5130593;27;20020;-73
2022/10/30 06:37:11;;;;;;;245.40;42.45;;;9.30;99.90;;;;;;5130634;27;20119;-74
2022/10/30 06:39:36;;;;;;;261.58;43.30;;;9.30;99.90;;;;;;5113392;28;20083;-73
2022/10/30 06:42:02;;;;;;;244.30;47.72;;;9.30;99.90;;;;;;5130676;27;20030;-74
2022/10/30 06:44:27;;;;;;;179.52;39.38;;;9.30;99.90;;;;;;5113432;28;20388;-74
2022/10/30 06:46:53;;;;;;;222.25;41.72;;;9.40;99.90;;;;;;5105975;28;20032;-75
2022/10/30 06:49:19;;;;;;;206.27;40.35;;;9.40;99.90;;;;;;5073982;28;20466;-73
2022/10/30 06:51:48;;;;;;;209.75;43.15;;;9.40;99.90;;;;;;5073771;28;20500;-73
2022/10/30 06:54:13;;;;;;;258.23;45.47;;;9.50;99.90;;;;;;5072472;28;20020;-73
2022/10/30 06:56:39;;;;;;;185.68;40.30;;;9.50;99.90;;;;;;5073556;28;20070;-74
2022/10/30 06:59:04;;;;;;;247.90;47.20;;;9.40;99.90;;;;;;5093907;28;20082;-73
2022/10/30 07:01:30;;;;;;;198.65;41.38;;;9.40;99.90;;;;;;5094033;28;20493;-73
2022/10/30 07:03:55;;;;;;;189.85;40.53;;;9.50;99.90;;;;;;5093838;28;20115;-73
2022/10/30 07:06:21;;;;;;;178.13;38.17;;;9.40;99.90;;;;;;5093908;28;20074;-74
2022/10/30 07:08:47;;;;;;;153.80;39.65;;;9.40;99.90;;;;;;5093388;28;20086;-73
2022/10/30 07:11:12;;;;;;;330.65;55.03;;;9.40;99.90;;;;;;5093378;28;20462;-73
2022/10/30 07:13:38;;;;;;;179.63;39.47;;;9.50;99.90;;;;;;5093592;28;20031;-73
2022/10/30 07:16:04;;;;;;;178.48;43.60;;;9.50;99.90;;;;;;5093134;28;20464;-74
2022/10/30 07:18:29;;;;;;;251.50;50.55;;;9.50;99.90;;;;;;5091796;28;20020;-74
2022/10/30 07:20:55;;;;;;;181.52;41.92;;;9.60;99.90;;;;;;5092149;28;20039;-73
2022/10/30 07:23:21;;;;;;;274.88;51.40;;;9.60;99.90;;;;;;5093303;28;20028;-74
2022/10/30 07:25:47;;;;;;;195.90;47.47;;;9.60;99.90;;;;;;5109206;28;20059;-73
2022/10/30 07:28:12;;;;;;;163.05;43.03;;;9.70;99.90;;;;;;5093289;28;20020;-74
2022/10/30 07:30:38;;;;;;;217.35;45.50;;;9.70;99.90;;;;;;5099875;28;20027;-73
2022/10/30 07:33:05;;;;;;;169.27;42.88;;;9.70;99.90;;;;;;5113794;28;20024;-74
2022/10/30 07:35:34;;;;;;;177.35;42.38;;;9.80;99.90;;;;;;5100599;28;20035;-73
2022/10/30 07:38:08;;;;;;;176.35;39.83;;;9.80;99.90;;;;;;5113727;28;20034;-74
2022/10/30 07:40:34;;;;;;;157.77;39.28;;;9.90;99.90;;;;;;5095670;28;20028;-73
2022/10/30 07:43:01;;;;;;;132.45;42.88;;;9.90;99.90;;;;;;5091437;28;20472;-74
2022/10/30 07:45:28;;;;;;;171.48;43.58;;;9.90;99.90;;;;;;5091995;28;20024;-73
2022/10/30 07:47:54;;;;;;;158.30;42.30;;;9.90;99.90;;;;;;5092221;28;20024;-74
2022/10/30 07:50:19;;;;;;;168.93;43.15;;;10.00;99.90;;;;;;5093293;28;20024;-73
2022/10/30 07:52:45;;;;;;;182.98;45.30;;;10.00;99.90;;;;;;5092103;28;20019;-74
2022/10/30 07:55:11;;;;;;;152.65;44.33;;;10.00;99.90;;;;;;5093253;28;20027;-74
2022/10/30 07:57:38;;;;;;;139.68;41.00;;;10.00;99.90;;;;;;5096477;28;20020;-74
2022/10/30 08:00:06;;;;;;;197.23;47.33;;;10.10;99.90;;;;;;5091612;28;20025;-74
2022/10/30 08:02:32;;;;;;;146.55;40.70;;;10.10;99.90;;;;;;5091812;28;20024;-73
2022/10/30 08:04:58;;;;;;;186.60;43.25;;;10.20;99.90;;;;;;5092449;28;20395;-73
2022/10/30 08:07:27;;;;;;;124.07;39.05;;;10.10;99.90;;;;;;5092153;28;20035;-74
2022/10/30 08:09:53;;;;;;;175.02;42.90;;;10.20;99.90;;;;;;5092663;28;20113;-73
2022/10/30 08:12:18;;;;;;;128.77;40.05;;;10.20;99.90;;;;;;5093227;28;20016;-73
2022/10/30 08:14:44;;;;;;;119.97;43.20;;;10.20;99.90;;;;;;5093049;28;20024;-74
2022/10/30 08:17:09;;;;;;;181.73;43.42;;;10.30;99.90;;;;;;5093036;28;20028;-74
2022/10/30 08:19:35;;;;;;;163.65;44.42;;;10.40;99.90;;;;;;5091659;28;20031;-74
2022/10/30 08:22:01;;;;;;;115.97;41.70;;;10.40;99.90;;;;;;5092267;28;20074;-74
2022/10/30 08:24:26;;;;;;;125.22;42.58;;;10.40;99.90;;;;;;5090911;28;20105;-74
2022/10/30 08:26:52;;;;;;;164.88;44.55;;;10.50;99.90;;;;;;5092151;28;20042;-74
2022/10/30 08:29:18;;;;;;;170.32;46.50;;;10.50;99.90;;;;;;5092476;28;20043;-74
2022/10/30 08:31:43;;;;;;;152.60;42.97;;;10.60;99.90;;;;;;5103783;28;20013;-75
2022/10/30 08:34:09;;;;;;;126.78;39.63;;;10.60;99.90;;;;;;5092075;28;20055;-74
2022/10/30 08:36:35;;;;;;;125.38;40.42;;;10.60;99.90;;;;;;5092907;28;20063;-75
2022/10/30 08:39:02;;;;;;;118.72;41.08;;;10.80;99.90;;;;;;5092424;28;20137;-74
2022/10/30 08:41:28;;;;;;;109.18;38.03;;;10.80;99.90;;;;;;5093103;28;20029;-74
2022/10/30 08:43:54;;;;;;;170.27;44.88;;;10.80;99.90;;;;;;5092721;28;20147;-73
2022/10/30 08:46:19;;;;;;;114.72;41.97;;;10.80;99.90;;;;;;5106681;28;20537;-74
2022/10/30 08:48:45;;;;;;;121.68;39.88;;;10.90;99.90;;;;;;5117032;28;20024;-74
2022/10/30 08:51:11;;;;;;;173.13;45.40;;;10.80;99.90;;;;;;5091910;28;20409;-75
2022/10/30 08:53:36;;;;;;;117.97;40.00;;;10.90;99.90;;;;;;5091463;28;20027;-75
2022/10/30 08:56:02;;;;;;;155.27;45.17;;;10.90;99.90;;;;;;5091938;28;20469;-74
2022/10/30 08:58:28;;;;;;;137.45;43.85;;;10.90;99.90;;;;;;5094677;28;20032;-74
2022/10/30 09:00:53;;;;;;;180.70;42.75;;;11.00;99.90;;;;;;5096167;28;20104;-73
2022/10/30 09:03:19;;;;;;;132.48;40.72;;;11.00;99.90;;;;;;5095190;28;20093;-73
2022/10/30 09:05:44;;;;;;;124.32;42.63;;;11.10;99.90;;;;;;5111285;28;20075;-74
2022/10/30 09:08:10;;;;;;;114.15;36.38;;;11.10;99.90;;;;;;5111950;28;20065;-75
2022/10/30 09:10:36;;;;;;;102.78;39.00;;;11.20;99.90;;;;;;5094672;28;20027;-74
2022/10/30 09:13:02;;;;;;;105.53;38.53;;;11.30;99.90;;;;;;5096337;28;20097;-73
2022/10/30 09:15:28;;;;;;;118.70;41.10;;;11.30;99.90;;;;;;5094758;28;20028;-73
2022/10/30 09:18:02;;;;;;;105.78;40.35;;;11.40;99.90;;;;;;5094796;28;20023;-74
2022/10/30 09:20:28;;;;;;;97.90;38.88;;;11.40;99.90;;;;;;5094580;28;20074;-74
2022/10/30 09:22:54;;;;;;;94.55;36.08;;;11.40;99.90;;;;;;5095943;28;20473;-73
2022/10/30 09:25:19;;;;;;;108.65;39.65;;;11.50;99.90;;;;;;5095724;28;20027;-74
2022/10/30 09:27:45;;;;;;;99.80;41.20;;;11.60;99.90;;;;;;5111238;28;20016;-75
2022/10/30 09:30:12;;;;;;;111.57;41.60;;;11.80;99.90;;;;;;5097508;28;20023;-74
2022/10/30 09:32:38;;;;;;;106.10;40.38;;;11.90;99.90;;;;;;5130735;27;20012;-74
2022/10/30 09:35:04;;;;;;;101.13;40.40;;;12.00;99.90;;;;;;5112961;28;20156;-74
2022/10/30 09:37:33;;;;;;;105.80;44.40;;;12.10;99.90;;;;;;5115864;28;20401;-73
2022/10/30 09:39:59;;;;;;;110.63;42.03;;;12.20;99.90;;;;;;5114567;28;20409;-74
2022/10/30 09:42:44;;;;;;;93.97;40.20;;;12.30;99.90;;;;;;5116110;28;20024;-74
2022/10/30 09:45:24;;;;;;;107.50;42.92;;;12.40;99.90;;;;;;5113195;28;20106;-74
2022/10/30 09:48:02;;;;;;;98.57;39.92;;;12.50;99.90;;;;;;5112635;28;20043;-73
2022/10/30 09:50:31;;;;;;;103.88;43.47;;;12.70;99.90;;;;;;5113755;28;20047;-74
2022/10/30 09:53:11;;;;;;;100.85;44.90;;;12.80;99.90;;;;;;5112331;28;20020;-74
2022/10/30 09:55:56;;;;;;;91.35;40.28;;;13.10;99.90;;;;;;5113725;28;20385;-73
2022/10/30 09:59:01;;;;;;;86.72;38.28;;;13.30;99.90;;;;;;5113276;27;20057;-74
2022/10/30 10:01:33;;;;;;;81.88;35.90;;;13.40;99.90;;;;;;5093482;28;20020;-75
2022/10/30 10:04:02;;;;;;;83.05;38.85;;;13.60;99.90;;;;;;5093110;28;20107;-73
2022/10/30 10:06:28;;;;;;;79.10;36.25;;;13.70;99.90;;;;;;5093411;28;20036;-74
2022/10/30 10:09:03;;;;;;;75.15;36.33;;;13.80;99.90;;;;;;5092727;28;20024;-74
2022/10/30 10:11:38;;;;;;;77.95;39.03;;;13.80;99.90;;;;;;5091168;28;20032;-73
2022/10/30 10:14:10;;;;;;;76.10;36.50;;;13.80;99.90;;;;;;5092142;28;20110;-74
2022/10/30 10:16:39;;;;;;;81.78;36.95;;;14.00;99.90;;;;;;5113205;28;20012;-74
2022/10/30 10:19:04;;;;;;;72.18;34.17;;;14.10;99.90;;;;;;5111589;28;20028;-74
2022/10/30 10:21:35;;;;;;;80.07;37.58;;;14.10;99.90;;;;;;5108684;28;20034;-75
2022/10/30 10:24:03;;;;;;;72.47;36.85;;;14.20;99.90;;;;;;5101197;28;20440;-74
2022/10/30 10:27:13;;;;;;;76.55;35.38;;;14.30;99.90;;;;;;5087870;28;20113;-73
2022/10/30 10:29:57;;;;;;;68.75;34.13;;;14.50;99.90;;;;;;5076692;28;20059;-73
2022/10/30 10:32:49;;;;;;;70.38;32.90;;;14.60;99.90;;;;;;5092246;28;20023;-73
2022/10/30 10:35:18;;;;;;;68.60;34.47;;;14.70;99.90;;;;;;5073940;28;20027;-73
2022/10/30 10:38:25;;;;;;;77.65;35.35;;;14.70;99.90;;;;;;5084962;28;20036;-74
2022/10/30 10:41:02;;;;;;;62.65;33.30;;;14.80;99.90;;;;;;5093809;28;20040;-74
2022/10/30 10:43:57;;;;;;;68.07;32.47;;;14.90;99.90;;;;;;5094321;28;20028;-74
2022/10/30 10:46:40;;;;;;;65.80;33.20;;;14.90;99.90;;;;;;5093703;28;20036;-75
2022/10/30 10:49:28;;;;;;;68.15;32.13;;;15.00;99.90;;;;;;5093971;28;20091;-75
2022/10/30 10:52:09;;;;;;;69.60;32.72;;;15.10;99.90;;;;;;5092663;28;20020;-75
2022/10/30 10:54:58;;;;;;;64.07;31.27;;;15.10;99.90;;;;;;5092649;28;20042;-76
2022/10/30 10:57:39;;;;;;;59.90;30.30;;;15.20;99.90;;;;;;5096054;28;20020;-75
2022/10/30 11:00:06;;;;;;;58.88;29.70;;;15.30;99.90;;;;;;5092858;28;20024;-75
2022/10/30 11:02:51;;;;;;;57.10;29.75;;;15.30;99.90;;;;;;5092059;28;20031;-75
2022/10/30 11:05:35;;;;;;;61.17;31.05;;;15.40;99.90;;;;;;5091127;28;20031;-74
2022/10/30 11:08:16;;;;;;;56.72;30.80;;;15.50;99.90;;;;;;5088841;28;20040;-74
2022/10/30 11:10:41;;;;;;;55.40;29.02;;;15.50;99.90;;;;;;5087537;28;20028;-74
2022/10/30 11:13:13;;;;;;;55.00;29.17;;;15.60;99.90;;;;;;5106362;28;20564;-74
2022/10/30 11:15:49;;;;;;;64.47;30.52;;;15.70;99.90;;;;;;5120596;27;20080;-75
2022/10/30 11:18:14;;;;;;;57.63;31.38;;;15.80;99.90;;;;;;5093045;28;20028;-74
2022/10/30 11:21:01;;;;;;;58.17;28.10;;;15.90;99.90;;;;;;5081099;28;20016;-74
2022/10/30 11:23:33;;;;;;;54.63;29.33;;;15.90;99.90;;;;;;5081587;28;20031;-75
2022/10/30 11:26:01;;;;;;;52.42;27.60;;;15.90;99.90;;;;;;5083373;28;20042;-74
2022/10/30 11:28:41;;;;;;;56.13;29.70;;;16.00;99.90;;;;;;5082654;28;20032;-75
2022/10/30 11:31:42;;;;;;;56.08;28.20;;;16.00;99.90;;;;;;5095310;28;20407;-74
2022/10/30 11:34:17;;;;;;;57.80;27.55;;;16.10;99.90;;;;;;5074213;28;20041;-74
2022/10/30 11:36:53;;;;;;;48.17;28.92;;;16.10;99.90;;;;;;5066806;28;20120;-74
2022/10/30 11:39:26;;;;;;;43.08;23.42;;;16.20;99.90;;;;;;5089743;28;20055;-74
2022/10/30 11:42:26;;;;;;;56.50;29.33;;;16.20;99.90;;;;;;5088272;28;20505;-74
2022/10/30 11:44:52;;;;;;;46.35;25.45;;;16.30;99.90;;;;;;5054879;28;20047;-74
2022/10/30 11:47:22;;;;;;;45.42;25.63;;;16.30;99.90;;;;;;5089761;28;20036;-75
2022/10/30 11:49:52;;;;;;;53.95;28.15;;;16.40;99.90;;;;;;5088453;28;20028;-75
2022/10/30 11:52:23;;;;;;;45.53;24.77;;;16.50;99.90;;;;;;5089910;28;20115;-74
2022/10/30 11:55:01;;;;;;;39.35;23.80;;;16.50;99.90;;;;;;5092266;28;20098;-74
2022/10/30 11:57:40;;;;;;;44.45;22.55;;;16.50;99.90;;;;;;5116221;28;20024;-73
2022/10/30 12:00:23;;;;;;;36.50;21.60;;;16.50;99.90;;;;;;5089725;28;20099;-73
2022/10/30 12:02:59;;;;;;;38.55;21.75;;;16.50;99.90;;;;;;5089692;28;20028;-74
2022/10/30 12:05:24;;;;;;;40.30;20.52;;;16.50;99.90;;;;;;5089586;28;20073;-74
2022/10/30 12:07:51;;;;;;;40.58;22.30;;;16.50;99.90;;;;;;5089708;28;20423;-74
2022/10/30 12:10:29;;;;;;;33.47;20.55;;;16.50;99.90;;;;;;5090702;28;20023;-74
2022/10/30 12:12:55;;;;;;;42.08;21.42;;;16.50;99.90;;;;;;5091521;28;20127;-74
2022/10/30 12:15:24;;;;;;;39.10;21.83;;;16.50;99.90;;;;;;5092771;28;20027;-74
2022/10/30 12:17:59;;;;;;;36.05;20.48;;;16.50;99.90;;;;;;5092903;28;20069;-75
2022/10/30 12:20:25;;;;;;;45.03;24.75;;;16.50;99.90;;;;;;5092961;28;20031;-74
2022/10/30 12:22:51;;;;;;;43.28;24.42;;;16.60;99.90;;;;;;5092788;28;20039;-78
2022/10/30 12:25:28;;;;;;;41.20;24.30;;;16.60;99.90;;;;;;5091604;28;20017;-75
2022/10/30 12:28:05;;;;;;;42.38;24.30;;;16.60;99.90;;;;;;5087707;28;20478;-74
2022/10/30 12:30:36;;;;;;;46.97;26.10;;;16.60;99.90;;;;;;5092102;28;20129;-74
2022/10/30 12:33:13;;;;;;;43.00;25.17;;;16.60;99.90;;;;;;5098156;28;20020;-76
2022/10/30 12:35:57;;;;;;;40.65;22.88;;;16.80;99.90;;;;;;5092847;28;20043;-76
2022/10/30 12:38:33;;;;;;;47.08;24.85;;;16.90;99.90;;;;;;5085372;28;20152;-76
2022/10/30 12:41:23;;;;;;;40.00;21.40;;;17.00;99.90;;;;;;5107415;28;20047;-76